sensor_id;sensor_type;location;lat;lon;timestamp;P1;durP1;ratioP1;P2;durP2;ratioP2
10090;SDS011;5084;51.386;6.778;2023-04-29T00:00:20;25.47;;;19.70;;
10090;SDS011;5084;51.386;6.778;2023-04-29T00:02:46;29.13;;;20.70;;
10090;SDS011;5084;51.386;6.778;2023-04-29T00:05:12;24.23;;;19.83;;
10090;SDS011;5084;51.386;6.778;2023-04-29T00:07:39;26.40;;;19.07;;
10090;SDS011;5084;51.386;6.778;2023-04-29T00:10:05;28.57;;;20.93;;
10090;SDS011;5084;51.386;6.778;2023-04-29T00:12:31;29.07;;;20.30;;
10090;SDS011;5084;51.386;6.778;2023-04-29T00:14:57;26.43;;;19.90;;
10090;SDS011;5084;51.386;6.778;2023-04-29T00:17:24;25.77;;;21.40;;
10090;SDS011;5084;51.386;6.778;2023-04-29T00:19:51;25.30;;;20.90;;
10090;SDS011;5084;51.386;6.778;2023-04-29T00:22:17;24.83;;;18.50;;
10090;SDS011;5084;51.386;6.778;2023-04-29T00:24:43;28.27;;;20.23;;
10090;SDS011;5084;51.386;6.778;2023-04-29T00:27:09;27.87;;;20.63;;
10090;SDS011;5084;51.386;6.778;2023-04-29T00:29:35;27.23;;;20.37;;
10090;SDS011;5084;51.386;6.778;2023-04-29T00:32:02;28.97;;;21.23;;
10090;SDS011;5084;51.386;6.778;2023-04-29T00:34:29;26.80;;;20.33;;
10090;SDS011;5084;51.386;6.778;2023-04-29T00:36:55;27.70;;;21.70;;
10090;SDS011;5084;51.386;6.778;2023-04-29T00:39:21;31.93;;;21.93;;
10090;SDS011;5084;51.386;6.778;2023-04-29T00:41:47;28.57;;;21.27;;
10090;SDS011;5084;51.386;6.778;2023-04-29T00:44:13;33.27;;;23.03;;
10090;SDS011;5084;51.386;6.778;2023-04-29T00:46:39;30.77;;;20.67;;
10090;SDS011;5084;51.386;6.778;2023-04-29T00:49:05;27.77;;;21.10;;
10090;SDS011;5084;51.386;6.778;2023-04-29T00:51:32;31.83;;;23.73;;
10090;SDS011;5084;51.386;6.778;2023-04-29T00:54:00;35.03;;;22.70;;
10090;SDS011;5084;51.386;6.778;2023-04-29T00:56:26;30.17;;;21.83;;
10090;SDS011;5084;51.386;6.778;2023-04-29T00:58:54;33.07;;;22.37;;
10090;SDS011;5084;51.386;6.778;2023-04-29T01:01:22;33.30;;;23.63;;
10090;SDS011;5084;51.386;6.778;2023-04-29T01:03:49;32.37;;;23.20;;
10090;SDS011;5084;51.386;6.778;2023-04-29T01:14:30;36.57;;;24.37;;
10090;SDS011;5084;51.386;6.778;2023-04-29T01:16:59;35.43;;;23.70;;
10090;SDS011;5084;51.386;6.778;2023-04-29T01:21:52;44.23;;;28.17;;
10090;SDS011;5084;51.386;6.778;2023-04-29T01:24:18;45.77;;;29.87;;
10090;SDS011;5084;51.386;6.778;2023-04-29T01:26:53;47.90;;;28.83;;
10090;SDS011;5084;51.386;6.778;2023-04-29T01:29:21;43.13;;;28.80;;
10090;SDS011;5084;51.386;6.778;2023-04-29T01:32:05;45.23;;;29.03;;
10090;SDS011;5084;51.386;6.778;2023-04-29T01:34:34;41.17;;;29.17;;
10090;SDS011;5084;51.386;6.778;2023-04-29T01:37:04;46.80;;;28.47;;
10090;SDS011;5084;51.386;6.778;2023-04-29T01:39:32;44.07;;;27.00;;
10090;SDS011;5084;51.386;6.778;2023-04-29T01:42:09;44.17;;;28.13;;
10090;SDS011;5084;51.386;6.778;2023-04-29T01:44:39;41.07;;;27.47;;
10090;SDS011;5084;51.386;6.778;2023-04-29T01:47:06;45.23;;;27.60;;
10090;SDS011;5084;51.386;6.778;2023-04-29T01:49:35;43.10;;;27.53;;
10090;SDS011;5084;51.386;6.778;2023-04-29T01:52:01;40.57;;;26.07;;
10090;SDS011;5084;51.386;6.778;2023-04-29T01:54:27;42.33;;;26.67;;
10090;SDS011;5084;51.386;6.778;2023-04-29T01:56:53;38.13;;;26.00;;
10090;SDS011;5084;51.386;6.778;2023-04-29T01:59:20;42.90;;;26.97;;
10090;SDS011;5084;51.386;6.778;2023-04-29T02:01:46;44.37;;;26.57;;
10090;SDS011;5084;51.386;6.778;2023-04-29T02:04:12;49.47;;;27.87;;
10090;SDS011;5084;51.386;6.778;2023-04-29T02:06:38;47.00;;;27.57;;
10090;SDS011;5084;51.386;6.778;2023-04-29T02:09:04;42.00;;;25.60;;
10090;SDS011;5084;51.386;6.778;2023-04-29T02:11:31;37.20;;;24.37;;
10090;SDS011;5084;51.386;6.778;2023-04-29T02:13:57;43.53;;;26.53;;
10090;SDS011;5084;51.386;6.778;2023-04-29T02:16:23;46.67;;;26.13;;
10090;SDS011;5084;51.386;6.778;2023-04-29T02:18:49;39.77;;;25.73;;
10090;SDS011;5084;51.386;6.778;2023-04-29T02:21:15;45.97;;;26.07;;
10090;SDS011;5084;51.386;6.778;2023-04-29T02:23:41;46.27;;;26.00;;
10090;SDS011;5084;51.386;6.778;2023-04-29T02:26:07;40.93;;;25.00;;
10090;SDS011;5084;51.386;6.778;2023-04-29T02:28:34;39.40;;;24.63;;
10090;SDS011;5084;51.386;6.778;2023-04-29T02:31:01;40.17;;;24.40;;
10090;SDS011;5084;51.386;6.778;2023-04-29T02:33:27;46.20;;;25.87;;
10090;SDS011;5084;51.386;6.778;2023-04-29T02:35:53;46.00;;;26.73;;
10090;SDS011;5084;51.386;6.778;2023-04-29T02:38:19;41.23;;;24.40;;
10090;SDS011;5084;51.386;6.778;2023-04-29T02:40:45;41.43;;;26.70;;
10090;SDS011;5084;51.386;6.778;2023-04-29T02:43:12;41.03;;;25.03;;
10090;SDS011;5084;51.386;6.778;2023-04-29T02:45:38;42.50;;;24.77;;
10090;SDS011;5084;51.386;6.778;2023-04-29T02:48:04;41.40;;;24.80;;
10090;SDS011;5084;51.386;6.778;2023-04-29T02:50:31;39.27;;;24.20;;
10090;SDS011;5084;51.386;6.778;2023-04-29T02:52:57;36.40;;;23.13;;
10090;SDS011;5084;51.386;6.778;2023-04-29T02:55:23;35.30;;;23.80;;
10090;SDS011;5084;51.386;6.778;2023-04-29T02:57:49;35.43;;;23.10;;
10090;SDS011;5084;51.386;6.778;2023-04-29T03:00:15;32.37;;;21.80;;
10090;SDS011;5084;51.386;6.778;2023-04-29T03:02:41;31.13;;;22.17;;
10090;SDS011;5084;51.386;6.778;2023-04-29T03:05:07;33.97;;;21.27;;
10090;SDS011;5084;51.386;6.778;2023-04-29T03:07:33;31.27;;;21.53;;
10090;SDS011;5084;51.386;6.778;2023-04-29T03:10:00;29.87;;;21.33;;
10090;SDS011;5084;51.386;6.778;2023-04-29T03:12:26;29.63;;;20.43;;
10090;SDS011;5084;51.386;6.778;2023-04-29T03:14:52;27.27;;;20.23;;
10090;SDS011;5084;51.386;6.778;2023-04-29T03:17:18;26.87;;;20.70;;
10090;SDS011;5084;51.386;6.778;2023-04-29T03:19:44;32.10;;;21.07;;
10090;SDS011;5084;51.386;6.778;2023-04-29T03:22:10;27.30;;;19.83;;
10090;SDS011;5084;51.386;6.778;2023-04-29T03:24:36;25.07;;;19.77;;
10090;SDS011;5084;51.386;6.778;2023-04-29T03:27:03;24.80;;;18.47;;
10090;SDS011;5084;51.386;6.778;2023-04-29T03:29:29;23.53;;;19.10;;
10090;SDS011;5084;51.386;6.778;2023-04-29T03:31:55;24.40;;;19.77;;
10090;SDS011;5084;51.386;6.778;2023-04-29T03:34:22;20.27;;;16.17;;
10090;SDS011;5084;51.386;6.778;2023-04-29T03:36:48;20.90;;;16.80;;
10090;SDS011;5084;51.386;6.778;2023-04-29T03:39:15;25.10;;;18.47;;
10090;SDS011;5084;51.386;6.778;2023-04-29T03:41:41;20.83;;;16.57;;
10090;SDS011;5084;51.386;6.778;2023-04-29T03:44:07;26.77;;;17.80;;
10090;SDS011;5084;51.386;6.778;2023-04-29T03:46:33;26.43;;;17.30;;
10090;SDS011;5084;51.386;6.778;2023-04-29T03:48:59;26.30;;;18.27;;
10090;SDS011;5084;51.386;6.778;2023-04-29T03:51:26;24.70;;;16.63;;
10090;SDS011;5084;51.386;6.778;2023-04-29T03:53:52;24.40;;;18.03;;
10090;SDS011;5084;51.386;6.778;2023-04-29T03:56:20;22.27;;;16.60;;
10090;SDS011;5084;51.386;6.778;2023-04-29T03:58:47;21.53;;;16.83;;
10090;SDS011;5084;51.386;6.778;2023-04-29T04:01:13;22.57;;;18.03;;
10090;SDS011;5084;51.386;6.778;2023-04-29T04:03:40;22.80;;;17.40;;
10090;SDS011;5084;51.386;6.778;2023-04-29T04:06:07;22.03;;;17.07;;
10090;SDS011;5084;51.386;6.778;2023-04-29T04:08:34;21.93;;;17.03;;
10090;SDS011;5084;51.386;6.778;2023-04-29T04:11:00;21.57;;;16.00;;
10090;SDS011;5084;51.386;6.778;2023-04-29T04:13:28;19.80;;;14.80;;
10090;SDS011;5084;51.386;6.778;2023-04-29T04:15:55;19.17;;;15.93;;
10090;SDS011;5084;51.386;6.778;2023-04-29T04:18:21;19.13;;;15.27;;
10090;SDS011;5084;51.386;6.778;2023-04-29T04:20:47;19.37;;;13.97;;
10090;SDS011;5084;51.386;6.778;2023-04-29T04:23:13;19.27;;;14.20;;
10090;SDS011;5084;51.386;6.778;2023-04-29T04:25:45;21.47;;;15.70;;
10090;SDS011;5084;51.386;6.778;2023-04-29T04:28:11;22.57;;;16.67;;
10090;SDS011;5084;51.386;6.778;2023-04-29T04:30:37;20.33;;;14.27;;
10090;SDS011;5084;51.386;6.778;2023-04-29T04:33:04;20.10;;;15.70;;
10090;SDS011;5084;51.386;6.778;2023-04-29T04:35:31;18.80;;;14.00;;
10090;SDS011;5084;51.386;6.778;2023-04-29T04:37:57;17.50;;;13.50;;
10090;SDS011;5084;51.386;6.778;2023-04-29T04:40:23;22.17;;;14.13;;
10090;SDS011;5084;51.386;6.778;2023-04-29T04:42:49;16.83;;;13.67;;
10090;SDS011;5084;51.386;6.778;2023-04-29T04:45:15;17.30;;;13.33;;
10090;SDS011;5084;51.386;6.778;2023-04-29T04:47:42;20.10;;;13.93;;
10090;SDS011;5084;51.386;6.778;2023-04-29T04:50:09;18.00;;;12.63;;
10090;SDS011;5084;51.386;6.778;2023-04-29T04:52:35;19.30;;;14.30;;
10090;SDS011;5084;51.386;6.778;2023-04-29T04:55:01;18.77;;;14.30;;
10090;SDS011;5084;51.386;6.778;2023-04-29T04:57:27;20.40;;;14.70;;
10090;SDS011;5084;51.386;6.778;2023-04-29T04:59:53;20.10;;;14.00;;
10090;SDS011;5084;51.386;6.778;2023-04-29T05:02:20;19.50;;;15.53;;
10090;SDS011;5084;51.386;6.778;2023-04-29T05:04:46;17.70;;;13.30;;
10090;SDS011;5084;51.386;6.778;2023-04-29T05:07:13;16.40;;;13.47;;
10090;SDS011;5084;51.386;6.778;2023-04-29T05:09:39;18.73;;;14.03;;
10090;SDS011;5084;51.386;6.778;2023-04-29T05:12:06;19.20;;;14.07;;
10090;SDS011;5084;51.386;6.778;2023-04-29T05:14:32;19.13;;;13.33;;
10090;SDS011;5084;51.386;6.778;2023-04-29T05:16:58;20.30;;;15.13;;
10090;SDS011;5084;51.386;6.778;2023-04-29T05:19:24;18.33;;;14.13;;
10090;SDS011;5084;51.386;6.778;2023-04-29T05:21:51;18.50;;;14.20;;
10090;SDS011;5084;51.386;6.778;2023-04-29T05:24:17;18.80;;;14.27;;
10090;SDS011;5084;51.386;6.778;2023-04-29T05:26:44;20.10;;;14.00;;
10090;SDS011;5084;51.386;6.778;2023-04-29T05:29:10;19.37;;;14.47;;
10090;SDS011;5084;51.386;6.778;2023-04-29T05:31:36;18.73;;;14.27;;
10090;SDS011;5084;51.386;6.778;2023-04-29T05:34:03;17.47;;;13.97;;
10090;SDS011;5084;51.386;6.778;2023-04-29T05:36:29;19.90;;;14.27;;
10090;SDS011;5084;51.386;6.778;2023-04-29T05:38:56;16.33;;;12.80;;
10090;SDS011;5084;51.386;6.778;2023-04-29T05:41:26;16.67;;;13.53;;
10090;SDS011;5084;51.386;6.778;2023-04-29T05:43:52;16.33;;;12.77;;
10090;SDS011;5084;51.386;6.778;2023-04-29T05:46:19;16.93;;;14.13;;
10090;SDS011;5084;51.386;6.778;2023-04-29T05:48:47;18.87;;;13.13;;
10090;SDS011;5084;51.386;6.778;2023-04-29T05:51:13;16.13;;;14.33;;
10090;SDS011;5084;51.386;6.778;2023-04-29T05:53:39;18.73;;;13.97;;
10090;SDS011;5084;51.386;6.778;2023-04-29T05:56:06;19.13;;;15.20;;
10090;SDS011;5084;51.386;6.778;2023-04-29T05:58:33;17.03;;;13.47;;
10090;SDS011;5084;51.386;6.778;2023-04-29T06:00:59;18.63;;;13.33;;
10090;SDS011;5084;51.386;6.778;2023-04-29T06:03:25;16.40;;;13.80;;
10090;SDS011;5084;51.386;6.778;2023-04-29T06:05:52;18.33;;;14.40;;
10090;SDS011;5084;51.386;6.778;2023-04-29T06:08:18;17.67;;;14.23;;
10090;SDS011;5084;51.386;6.778;2023-04-29T06:10:44;16.33;;;13.17;;
10090;SDS011;5084;51.386;6.778;2023-04-29T06:13:11;15.20;;;12.67;;
10090;SDS011;5084;51.386;6.778;2023-04-29T06:15:37;16.77;;;12.67;;
10090;SDS011;5084;51.386;6.778;2023-04-29T06:18:03;15.97;;;12.77;;
10090;SDS011;5084;51.386;6.778;2023-04-29T06:20:33;15.57;;;13.73;;
10090;SDS011;5084;51.386;6.778;2023-04-29T06:22:59;16.77;;;13.90;;
10090;SDS011;5084;51.386;6.778;2023-04-29T06:25:25;14.83;;;12.83;;
10090;SDS011;5084;51.386;6.778;2023-04-29T06:27:52;17.73;;;13.00;;
10090;SDS011;5084;51.386;6.778;2023-04-29T06:30:19;17.00;;;12.63;;
10090;SDS011;5084;51.386;6.778;2023-04-29T06:32:46;17.60;;;14.20;;
10090;SDS011;5084;51.386;6.778;2023-04-29T06:35:13;17.73;;;14.03;;
10090;SDS011;5084;51.386;6.778;2023-04-29T06:37:39;17.10;;;13.10;;
10090;SDS011;5084;51.386;6.778;2023-04-29T06:40:05;16.77;;;13.73;;
10090;SDS011;5084;51.386;6.778;2023-04-29T06:42:32;18.00;;;13.97;;
10090;SDS011;5084;51.386;6.778;2023-04-29T06:44:59;16.13;;;14.37;;
10090;SDS011;5084;51.386;6.778;2023-04-29T06:47:25;15.90;;;13.73;;
10090;SDS011;5084;51.386;6.778;2023-04-29T06:49:52;16.70;;;13.87;;
10090;SDS011;5084;51.386;6.778;2023-04-29T06:52:18;17.03;;;12.33;;
10090;SDS011;5084;51.386;6.778;2023-04-29T06:54:44;14.20;;;12.37;;
10090;SDS011;5084;51.386;6.778;2023-04-29T06:57:11;17.17;;;13.07;;
10090;SDS011;5084;51.386;6.778;2023-04-29T06:59:37;14.00;;;12.50;;
10090;SDS011;5084;51.386;6.778;2023-04-29T07:02:03;20.37;;;13.67;;
10090;SDS011;5084;51.386;6.778;2023-04-29T07:04:30;15.43;;;12.77;;
10090;SDS011;5084;51.386;6.778;2023-04-29T07:06:56;15.63;;;12.87;;
10090;SDS011;5084;51.386;6.778;2023-04-29T07:09:23;16.43;;;13.50;;
10090;SDS011;5084;51.386;6.778;2023-04-29T07:11:51;16.20;;;13.87;;
10090;SDS011;5084;51.386;6.778;2023-04-29T07:14:18;14.93;;;12.00;;
10090;SDS011;5084;51.386;6.778;2023-04-29T07:16:46;14.67;;;12.20;;
10090;SDS011;5084;51.386;6.778;2023-04-29T07:19:13;16.23;;;13.67;;
10090;SDS011;5084;51.386;6.778;2023-04-29T07:21:39;19.10;;;13.00;;
10090;SDS011;5084;51.386;6.778;2023-04-29T07:24:06;16.73;;;13.03;;
10090;SDS011;5084;51.386;6.778;2023-04-29T07:26:32;15.73;;;13.07;;
10090;SDS011;5084;51.386;6.778;2023-04-29T07:28:59;17.37;;;12.90;;
10090;SDS011;5084;51.386;6.778;2023-04-29T07:31:25;13.33;;;11.93;;
10090;SDS011;5084;51.386;6.778;2023-04-29T07:33:52;15.50;;;12.97;;
10090;SDS011;5084;51.386;6.778;2023-04-29T07:36:19;15.07;;;12.90;;
10090;SDS011;5084;51.386;6.778;2023-04-29T07:38:48;18.83;;;12.50;;
10090;SDS011;5084;51.386;6.778;2023-04-29T07:41:14;14.90;;;12.07;;
10090;SDS011;5084;51.386;6.778;2023-04-29T07:43:40;16.80;;;12.47;;
10090;SDS011;5084;51.386;6.778;2023-04-29T07:46:06;14.60;;;11.43;;
10090;SDS011;5084;51.386;6.778;2023-04-29T07:48:39;15.20;;;12.00;;
10090;SDS011;5084;51.386;6.778;2023-04-29T07:51:05;15.17;;;12.93;;
10090;SDS011;5084;51.386;6.778;2023-04-29T07:53:32;15.57;;;13.10;;
10090;SDS011;5084;51.386;6.778;2023-04-29T07:56:03;14.73;;;12.07;;
10090;SDS011;5084;51.386;6.778;2023-04-29T07:58:29;15.30;;;12.93;;
10090;SDS011;5084;51.386;6.778;2023-04-29T08:00:56;17.93;;;14.10;;
10090;SDS011;5084;51.386;6.778;2023-04-29T08:03:23;15.77;;;13.43;;
10090;SDS011;5084;51.386;6.778;2023-04-29T08:05:49;17.73;;;13.33;;
10090;SDS011;5084;51.386;6.778;2023-04-29T08:08:17;19.03;;;13.60;;
10090;SDS011;5084;51.386;6.778;2023-04-29T08:10:43;18.63;;;13.40;;
10090;SDS011;5084;51.386;6.778;2023-04-29T08:13:10;17.90;;;14.83;;
10090;SDS011;5084;51.386;6.778;2023-04-29T08:15:36;16.50;;;14.43;;
10090;SDS011;5084;51.386;6.778;2023-04-29T08:18:02;16.17;;;14.13;;
10090;SDS011;5084;51.386;6.778;2023-04-29T08:20:29;18.10;;;14.53;;
10090;SDS011;5084;51.386;6.778;2023-04-29T08:22:57;25.00;;;17.65;;
10090;SDS011;5084;51.386;6.778;2023-04-29T08:25:23;25.60;;;18.10;;
10090;SDS011;5084;51.386;6.778;2023-04-29T08:27:50;17.53;;;14.90;;
10090;SDS011;5084;51.386;6.778;2023-04-29T08:30:17;21.87;;;16.07;;
10090;SDS011;5084;51.386;6.778;2023-04-29T08:32:43;17.80;;;14.83;;
10090;SDS011;5084;51.386;6.778;2023-04-29T08:35:10;22.07;;;16.17;;
10090;SDS011;5084;51.386;6.778;2023-04-29T08:37:36;21.97;;;16.10;;
10090;SDS011;5084;51.386;6.778;2023-04-29T08:40:02;20.83;;;16.43;;
10090;SDS011;5084;51.386;6.778;2023-04-29T08:42:31;29.20;;;16.53;;
10090;SDS011;5084;51.386;6.778;2023-04-29T08:44:57;20.40;;;17.50;;
10090;SDS011;5084;51.386;6.778;2023-04-29T08:47:24;22.07;;;17.33;;
10090;SDS011;5084;51.386;6.778;2023-04-29T08:49:52;21.87;;;16.87;;
10090;SDS011;5084;51.386;6.778;2023-04-29T08:52:18;20.13;;;15.70;;
10090;SDS011;5084;51.386;6.778;2023-04-29T08:54:45;23.67;;;18.10;;
10090;SDS011;5084;51.386;6.778;2023-04-29T08:57:11;22.57;;;18.10;;
10090;SDS011;5084;51.386;6.778;2023-04-29T08:59:37;28.67;;;18.30;;
10090;SDS011;5084;51.386;6.778;2023-04-29T09:02:05;24.70;;;18.13;;
10090;SDS011;5084;51.386;6.778;2023-04-29T09:04:41;25.97;;;19.03;;
10090;SDS011;5084;51.386;6.778;2023-04-29T09:07:12;27.07;;;18.43;;
10090;SDS011;5084;51.386;6.778;2023-04-29T09:09:38;26.47;;;18.97;;
10090;SDS011;5084;51.386;6.778;2023-04-29T09:12:04;22.77;;;18.23;;
10090;SDS011;5084;51.386;6.778;2023-04-29T09:14:31;25.80;;;18.93;;
10090;SDS011;5084;51.386;6.778;2023-04-29T09:16:58;23.07;;;17.60;;
10090;SDS011;5084;51.386;6.778;2023-04-29T09:19:34;26.10;;;19.30;;
10090;SDS011;5084;51.386;6.778;2023-04-29T09:22:00;26.30;;;20.07;;
10090;SDS011;5084;51.386;6.778;2023-04-29T09:24:28;22.43;;;18.17;;
10090;SDS011;5084;51.386;6.778;2023-04-29T09:26:54;23.30;;;18.77;;
10090;SDS011;5084;51.386;6.778;2023-04-29T09:29:20;18.93;;;16.93;;
10090;SDS011;5084;51.386;6.778;2023-04-29T09:31:47;21.60;;;18.13;;
10090;SDS011;5084;51.386;6.778;2023-04-29T09:34:13;20.88;;;18.17;;
10090;SDS011;5084;51.386;6.778;2023-04-29T09:39:07;20.90;;;17.00;;
10090;SDS011;5084;51.386;6.778;2023-04-29T09:42:09;20.73;;;16.97;;
10090;SDS011;5084;51.386;6.778;2023-04-29T09:44:30;20.07;;;17.03;;
10090;SDS011;5084;51.386;6.778;2023-04-29T09:46:57;22.50;;;17.70;;
10090;SDS011;5084;51.386;6.778;2023-04-29T09:49:27;23.23;;;18.57;;
10090;SDS011;5084;51.386;6.778;2023-04-29T09:51:54;22.00;;;17.00;;
10090;SDS011;5084;51.386;6.778;2023-04-29T09:54:21;17.97;;;16.07;;
10090;SDS011;5084;51.386;6.778;2023-04-29T09:56:48;24.97;;;18.70;;
10090;SDS011;5084;51.386;6.778;2023-04-29T09:59:14;19.63;;;16.83;;
10090;SDS011;5084;51.386;6.778;2023-04-29T10:01:41;22.13;;;18.37;;
10090;SDS011;5084;51.386;6.778;2023-04-29T10:04:07;19.13;;;16.93;;
10090;SDS011;5084;51.386;6.778;2023-04-29T10:06:37;21.27;;;16.77;;
10090;SDS011;5084;51.386;6.778;2023-04-29T10:09:04;24.40;;;16.47;;
10090;SDS011;5084;51.386;6.778;2023-04-29T10:11:32;23.33;;;16.93;;
10090;SDS011;5084;51.386;6.778;2023-04-29T10:13:58;20.67;;;15.70;;
10090;SDS011;5084;51.386;6.778;2023-04-29T10:16:28;21.23;;;16.27;;
10090;SDS011;5084;51.386;6.778;2023-04-29T10:18:55;21.87;;;17.33;;
10090;SDS011;5084;51.386;6.778;2023-04-29T10:21:27;19.23;;;15.97;;
10090;SDS011;5084;51.386;6.778;2023-04-29T10:23:57;21.10;;;16.00;;
10090;SDS011;5084;51.386;6.778;2023-04-29T10:26:27;21.03;;;16.93;;
10090;SDS011;5084;51.386;6.778;2023-04-29T10:28:57;20.73;;;16.07;;
10090;SDS011;5084;51.386;6.778;2023-04-29T10:31:25;20.40;;;16.17;;
10090;SDS011;5084;51.386;6.778;2023-04-29T10:33:53;19.27;;;16.13;;
10090;SDS011;5084;51.386;6.778;2023-04-29T10:36:20;20.13;;;15.93;;
10090;SDS011;5084;51.386;6.778;2023-04-29T10:38:48;19.40;;;16.10;;
10090;SDS011;5084;51.386;6.778;2023-04-29T10:41:59;23.47;;;17.57;;
10090;SDS011;5084;51.386;6.778;2023-04-29T10:44:06;18.67;;;15.43;;
10090;SDS011;5084;51.386;6.778;2023-04-29T10:46:33;17.10;;;15.30;;
10090;SDS011;5084;51.386;6.778;2023-04-29T10:49:00;18.03;;;14.90;;
10090;SDS011;5084;51.386;6.778;2023-04-29T10:51:34;17.40;;;15.33;;
10090;SDS011;5084;51.386;6.778;2023-04-29T10:54:14;20.13;;;16.27;;
10090;SDS011;5084;51.386;6.778;2023-04-29T10:56:50;20.30;;;16.70;;
10090;SDS011;5084;51.386;6.778;2023-04-29T10:59:19;19.43;;;16.33;;
10090;SDS011;5084;51.386;6.778;2023-04-29T11:01:50;19.93;;;15.43;;
10090;SDS011;5084;51.386;6.778;2023-04-29T11:04:17;18.33;;;15.33;;
10090;SDS011;5084;51.386;6.778;2023-04-29T11:06:49;19.33;;;15.13;;
10090;SDS011;5084;51.386;6.778;2023-04-29T11:09:24;17.80;;;15.17;;
10090;SDS011;5084;51.386;6.778;2023-04-29T11:16:58;17.60;;;15.37;;
10090;SDS011;5084;51.386;6.778;2023-04-29T11:19:29;16.87;;;15.07;;
10090;SDS011;5084;51.386;6.778;2023-04-29T11:22:03;19.53;;;15.33;;
10090;SDS011;5084;51.386;6.778;2023-04-29T11:24:33;18.57;;;14.90;;
10090;SDS011;5084;51.386;6.778;2023-04-29T11:27:01;17.10;;;15.10;;
10090;SDS011;5084;51.386;6.778;2023-04-29T11:29:31;17.27;;;14.60;;
10090;SDS011;5084;51.386;6.778;2023-04-29T11:32:01;21.53;;;15.47;;
10090;SDS011;5084;51.386;6.778;2023-04-29T11:34:27;17.47;;;15.23;;
10090;SDS011;5084;51.386;6.778;2023-04-29T11:36:53;17.27;;;14.93;;
10090;SDS011;5084;51.386;6.778;2023-04-29T11:39:23;18.63;;;15.60;;
10090;SDS011;5084;51.386;6.778;2023-04-29T11:41:49;19.67;;;16.00;;
10090;SDS011;5084;51.386;6.778;2023-04-29T11:44:16;19.30;;;15.07;;
10090;SDS011;5084;51.386;6.778;2023-04-29T11:46:46;17.10;;;15.30;;
10090;SDS011;5084;51.386;6.778;2023-04-29T11:49:15;18.67;;;16.00;;
10090;SDS011;5084;51.386;6.778;2023-04-29T11:51:42;22.00;;;15.77;;
10090;SDS011;5084;51.386;6.778;2023-04-29T11:54:08;18.17;;;15.87;;
10090;SDS011;5084;51.386;6.778;2023-04-29T11:56:36;18.80;;;16.20;;
10090;SDS011;5084;51.386;6.778;2023-04-29T11:59:02;20.07;;;17.03;;
10090;SDS011;5084;51.386;6.778;2023-04-29T12:01:32;17.30;;;15.13;;
10090;SDS011;5084;51.386;6.778;2023-04-29T12:03:58;18.57;;;15.97;;
10090;SDS011;5084;51.386;6.778;2023-04-29T12:06:27;20.03;;;16.00;;
10090;SDS011;5084;51.386;6.778;2023-04-29T12:08:54;16.53;;;14.30;;
10090;SDS011;5084;51.386;6.778;2023-04-29T12:11:21;18.67;;;16.63;;
10090;SDS011;5084;51.386;6.778;2023-04-29T12:13:49;17.80;;;15.90;;
10090;SDS011;5084;51.386;6.778;2023-04-29T12:16:16;18.83;;;14.67;;
10090;SDS011;5084;51.386;6.778;2023-04-29T12:18:42;17.67;;;15.60;;
10090;SDS011;5084;51.386;6.778;2023-04-29T12:21:09;16.87;;;14.80;;
10090;SDS011;5084;51.386;6.778;2023-04-29T12:23:35;19.30;;;14.40;;
10090;SDS011;5084;51.386;6.778;2023-04-29T12:26:02;17.37;;;15.40;;
10090;SDS011;5084;51.386;6.778;2023-04-29T12:28:29;16.93;;;15.23;;
10090;SDS011;5084;51.386;6.778;2023-04-29T12:30:56;17.73;;;15.07;;
10090;SDS011;5084;51.386;6.778;2023-04-29T12:33:25;18.83;;;16.60;;
10090;SDS011;5084;51.386;6.778;2023-04-29T12:35:52;17.03;;;15.23;;
10090;SDS011;5084;51.386;6.778;2023-04-29T12:38:23;15.90;;;14.20;;
10090;SDS011;5084;51.386;6.778;2023-04-29T12:40:59;16.10;;;14.40;;
10090;SDS011;5084;51.386;6.778;2023-04-29T12:43:32;15.40;;;13.80;;
10090;SDS011;5084;51.386;6.778;2023-04-29T12:46:01;15.83;;;14.17;;
10090;SDS011;5084;51.386;6.778;2023-04-29T12:48:29;16.97;;;15.20;;
10090;SDS011;5084;51.386;6.778;2023-04-29T12:50:56;15.87;;;14.27;;
10090;SDS011;5084;51.386;6.778;2023-04-29T12:53:24;16.37;;;14.67;;
10090;SDS011;5084;51.386;6.778;2023-04-29T12:55:51;15.63;;;14.00;;
10090;SDS011;5084;51.386;6.778;2023-04-29T12:58:18;15.97;;;14.33;;
10090;SDS011;5084;51.386;6.778;2023-04-29T13:00:47;15.47;;;13.87;;
10090;SDS011;5084;51.386;6.778;2023-04-29T13:03:14;16.27;;;14.63;;
10090;SDS011;5084;51.386;6.778;2023-04-29T13:05:41;16.57;;;13.30;;
10090;SDS011;5084;51.386;6.778;2023-04-29T13:08:07;15.00;;;13.47;;
10090;SDS011;5084;51.386;6.778;2023-04-29T13:10:34;15.13;;;13.60;;
10090;SDS011;5084;51.386;6.778;2023-04-29T13:13:00;15.13;;;13.53;;
10090;SDS011;5084;51.386;6.778;2023-04-29T13:15:27;14.90;;;13.37;;
10090;SDS011;5084;51.386;6.778;2023-04-29T13:17:54;15.10;;;13.50;;
10090;SDS011;5084;51.386;6.778;2023-04-29T13:20:22;14.67;;;13.17;;
10090;SDS011;5084;51.386;6.778;2023-04-29T13:22:49;12.73;;;11.43;;
10090;SDS011;5084;51.386;6.778;2023-04-29T13:25:15;14.90;;;12.60;;
10090;SDS011;5084;51.386;6.778;2023-04-29T13:27:42;14.33;;;12.90;;
10090;SDS011;5084;51.386;6.778;2023-04-29T13:30:09;13.33;;;11.87;;
10090;SDS011;5084;51.386;6.778;2023-04-29T13:32:36;14.70;;;11.77;;
10090;SDS011;5084;51.386;6.778;2023-04-29T13:35:05;12.53;;;11.27;;
10090;SDS011;5084;51.386;6.778;2023-04-29T13:37:31;13.17;;;11.80;;
10090;SDS011;5084;51.386;6.778;2023-04-29T13:40:00;12.37;;;11.17;;
10090;SDS011;5084;51.386;6.778;2023-04-29T13:42:26;13.23;;;10.83;;
10090;SDS011;5084;51.386;6.778;2023-04-29T13:44:53;12.57;;;10.67;;
10090;SDS011;5084;51.386;6.778;2023-04-29T13:47:21;12.43;;;10.40;;
10090;SDS011;5084;51.386;6.778;2023-04-29T13:49:48;10.97;;;9.87;;
10090;SDS011;5084;51.386;6.778;2023-04-29T13:52:14;12.50;;;11.17;;
10090;SDS011;5084;51.386;6.778;2023-04-29T13:57:44;12.23;;;11.03;;
10090;SDS011;5084;51.386;6.778;2023-04-29T14:00:10;11.53;;;10.40;;
10090;SDS011;5084;51.386;6.778;2023-04-29T14:02:37;11.23;;;10.13;;
10090;SDS011;5084;51.386;6.778;2023-04-29T14:05:04;11.70;;;9.73;;
10090;SDS011;5084;51.386;6.778;2023-04-29T14:07:31;11.67;;;9.50;;
10090;SDS011;5084;51.386;6.778;2023-04-29T14:09:57;10.90;;;9.77;;
10090;SDS011;5084;51.386;6.778;2023-04-29T14:12:24;10.63;;;9.63;;
10090;SDS011;5084;51.386;6.778;2023-04-29T14:14:50;10.80;;;9.30;;
10090;SDS011;5084;51.386;6.778;2023-04-29T14:17:17;11.97;;;9.93;;
10090;SDS011;5084;51.386;6.778;2023-04-29T14:19:44;10.90;;;9.80;;
10090;SDS011;5084;51.386;6.778;2023-04-29T14:22:10;10.30;;;9.30;;
10090;SDS011;5084;51.386;6.778;2023-04-29T14:24:36;11.60;;;10.47;;
10090;SDS011;5084;51.386;6.778;2023-04-29T14:27:03;11.73;;;9.57;;
10090;SDS011;5084;51.386;6.778;2023-04-29T14:29:30;9.33;;;8.43;;
10090;SDS011;5084;51.386;6.778;2023-04-29T14:31:56;10.40;;;8.87;;
10090;SDS011;5084;51.386;6.778;2023-04-29T14:34:23;11.07;;;9.87;;
10090;SDS011;5084;51.386;6.778;2023-04-29T14:36:50;9.73;;;8.73;;
10090;SDS011;5084;51.386;6.778;2023-04-29T14:39:17;10.60;;;8.30;;
10090;SDS011;5084;51.386;6.778;2023-04-29T14:41:43;11.27;;;9.60;;
10090;SDS011;5084;51.386;6.778;2023-04-29T14:44:09;9.03;;;8.20;;
10090;SDS011;5084;51.386;6.778;2023-04-29T14:46:36;11.00;;;8.77;;
10090;SDS011;5084;51.386;6.778;2023-04-29T14:49:02;10.97;;;9.20;;
10090;SDS011;5084;51.386;6.778;2023-04-29T14:51:28;9.23;;;7.87;;
10090;SDS011;5084;51.386;6.778;2023-04-29T14:53:55;10.57;;;8.30;;
10090;SDS011;5084;51.386;6.778;2023-04-29T14:56:22;8.57;;;7.77;;